createdAt,value
2023-08-19T00:00:47.943Z,1007.18
2023-08-19T00:01:47.946Z,1007.18
2023-08-19T00:02:47.954Z,1007.19
2023-08-19T00:03:47.923Z,1007.13
2023-08-19T00:04:47.912Z,1007.14
2023-08-19T00:05:47.869Z,1007.15
2023-08-19T00:06:47.861Z,1007.14
2023-08-19T00:07:47.846Z,1007.18
2023-08-19T00:08:47.844Z,1007.14
2023-08-19T00:09:47.850Z,1007.07
2023-08-19T00:10:47.862Z,1007.09
2023-08-19T00:11:47.800Z,1007.08
2023-08-19T00:12:47.814Z,1007.07
2023-08-19T00:13:47.778Z,1007.11
2023-08-19T00:14:47.775Z,1007.03
2023-08-19T00:15:47.778Z,1007.11
2023-08-19T00:16:47.807Z,1007.10
2023-08-19T00:17:47.764Z,1007.07
2023-08-19T00:18:47.722Z,1007.01
2023-08-19T00:19:47.716Z,1007.02
2023-08-19T00:20:47.710Z,1007.02
2023-08-19T00:21:47.692Z,1006.98
2023-08-19T00:22:47.737Z,1007.03
2023-08-19T00:23:47.689Z,1007.01
2023-08-19T00:24:47.662Z,1007.06
2023-08-19T00:25:47.663Z,1007.02
2023-08-19T00:26:47.654Z,1006.99
2023-08-19T00:27:47.639Z,1006.98
2023-08-19T00:28:47.639Z,1007.02
2023-08-19T00:29:47.619Z,1007.03
2023-08-19T00:30:47.633Z,1006.95
2023-08-19T00:31:47.594Z,1006.97
2023-08-19T00:32:47.613Z,1006.91
2023-08-19T00:33:47.580Z,1006.94
2023-08-19T00:34:47.554Z,1006.94
2023-08-19T00:35:47.536Z,1006.93
2023-08-19T00:36:47.558Z,1006.89
2023-08-19T00:37:47.516Z,1006.88
2023-08-19T00:38:47.513Z,1006.89
2023-08-19T00:39:47.497Z,1006.92
2023-08-19T00:40:47.482Z,1006.94
2023-08-19T00:41:47.474Z,1006.96
2023-08-19T00:42:47.490Z,1006.94
2023-08-19T00:43:47.465Z,1006.97
2023-08-19T00:44:47.457Z,1006.95
2023-08-19T00:45:47.431Z,1006.90
2023-08-19T00:46:47.431Z,1006.98
2023-08-19T00:47:47.426Z,1006.93
2023-08-19T00:48:47.430Z,1006.96
2023-08-19T00:49:47.387Z,1006.92
2023-08-19T00:50:47.373Z,1006.86
2023-08-19T00:51:47.381Z,1006.84
2023-08-19T00:52:47.354Z,1006.94
2023-08-19T00:53:47.343Z,1006.85
2023-08-19T00:54:47.332Z,1006.90
2023-08-19T00:55:47.326Z,1006.90
2023-08-19T00:56:47.317Z,1006.85
2023-08-19T00:57:47.315Z,1006.86
2023-08-19T00:58:47.317Z,1006.93
2023-08-19T00:59:47.279Z,1006.91
2023-08-19T01:00:47.268Z,1006.85
2023-08-19T01:01:47.263Z,1006.85
2023-08-19T01:02:47.304Z,1006.85
2023-08-19T01:03:47.326Z,1006.88
2023-08-19T01:04:47.239Z,1006.90
2023-08-19T01:05:47.210Z,1006.82
2023-08-19T01:06:47.215Z,1006.85
2023-08-19T01:07:47.184Z,1006.86
2023-08-19T01:08:47.197Z,1006.88
2023-08-19T01:09:47.161Z,1006.85
2023-08-19T01:10:47.173Z,1006.89
2023-08-19T01:11:47.136Z,1006.88
2023-08-19T01:12:47.127Z,1006.89
2023-08-19T01:13:47.121Z,1006.92
2023-08-19T01:14:47.140Z,1006.93
2023-08-19T01:15:47.106Z,1006.84
2023-08-19T01:16:47.084Z,1006.91
2023-08-19T01:17:47.160Z,1006.85
2023-08-19T01:18:47.064Z,1006.89
2023-08-19T01:19:47.058Z,1006.86
2023-08-19T01:20:47.048Z,1006.86
2023-08-19T01:21:47.036Z,1006.92
2023-08-19T01:22:47.019Z,1006.90
2023-08-19T01:23:47.042Z,1006.86
2023-08-19T01:24:46.995Z,1006.80
2023-08-19T01:25:46.996Z,1006.81
2023-08-19T01:26:46.974Z,1006.83
2023-08-19T01:27:46.960Z,1006.76
2023-08-19T01:28:46.963Z,1006.79
2023-08-19T01:29:46.952Z,1006.79
2023-08-19T01:30:46.948Z,1006.81
2023-08-19T01:31:46.970Z,1006.81
2023-08-19T01:32:46.985Z,1006.83
2023-08-19T01:33:46.908Z,1006.82
2023-08-19T01:34:46.924Z,1006.86
2023-08-19T01:35:46.879Z,1006.77
2023-08-19T01:36:46.866Z,1006.83
2023-08-19T01:37:46.869Z,1006.80
2023-08-19T01:38:46.863Z,1006.77
2023-08-19T01:39:46.838Z,1006.86
2023-08-19T01:40:46.831Z,1006.82
2023-08-19T01:41:46.814Z,1006.81
2023-08-19T01:42:46.827Z,1006.76
2023-08-19T01:43:46.801Z,1006.86
2023-08-19T01:44:46.790Z,1006.79
2023-08-19T01:45:46.826Z,1006.82
2023-08-19T01:46:46.776Z,1006.81
2023-08-19T01:47:46.764Z,1006.84
2023-08-19T01:48:46.772Z,1006.88
2023-08-19T01:49:46.728Z,1006.82
2023-08-19T01:50:46.707Z,1006.86
2023-08-19T01:51:46.710Z,1006.94
2023-08-19T01:52:46.703Z,1006.92
2023-08-19T01:53:46.680Z,1006.94
2023-08-19T01:54:46.680Z,1006.91
2023-08-19T01:55:46.656Z,1006.95
2023-08-19T01:56:46.644Z,1006.85
2023-08-19T01:57:46.632Z,1006.87
2023-08-19T01:58:46.636Z,1006.87
2023-08-19T01:59:46.626Z,1006.93
2023-08-19T02:00:46.602Z,1006.90
2023-08-19T02:01:46.595Z,1006.86
2023-08-19T02:02:46.658Z,1006.83
2023-08-19T02:03:46.569Z,1006.81
2023-08-19T02:04:46.590Z,1006.88
2023-08-19T02:05:46.579Z,1006.84
2023-08-19T02:06:46.536Z,1006.88
2023-08-19T02:07:46.587Z,1006.87
2023-08-19T02:08:46.534Z,1006.89
2023-08-19T02:09:46.537Z,1006.82
2023-08-19T02:10:46.518Z,1006.83
2023-08-19T02:11:46.478Z,1006.86
2023-08-19T02:12:46.529Z,1006.88
2023-08-19T02:13:46.534Z,1006.85
2023-08-19T02:14:46.445Z,1006.85
2023-08-19T02:15:46.556Z,1006.83
2023-08-19T02:16:46.426Z,1006.83
2023-08-19T02:17:46.511Z,1006.86
2023-08-19T02:18:46.566Z,1006.88
2023-08-19T02:19:46.393Z,1006.84
2023-08-19T02:20:46.404Z,1006.78
2023-08-19T02:21:46.367Z,1006.80
2023-08-19T02:22:46.369Z,1006.86
2023-08-19T02:23:46.354Z,1006.82
2023-08-19T02:24:46.337Z,1006.79
2023-08-19T02:29:27.758Z,1006.85
2023-08-19T02:30:27.742Z,1006.81
2023-08-19T02:31:27.850Z,1006.76
2023-08-19T02:32:27.755Z,1006.80
2023-08-19T02:33:27.714Z,1006.83
2023-08-19T02:34:27.739Z,1006.82
2023-08-19T02:35:27.693Z,1006.88
2023-08-19T02:36:27.675Z,1006.84
2023-08-19T02:37:27.692Z,1006.86
2023-08-19T02:38:27.651Z,1006.77
2023-08-19T02:39:27.654Z,1006.80
2023-08-19T02:40:27.636Z,1006.91
2023-08-19T02:41:27.619Z,1006.78
2023-08-19T02:42:27.660Z,1006.83
2023-08-19T02:43:27.592Z,1006.72
2023-08-19T02:44:27.585Z,1006.70
2023-08-19T02:45:27.572Z,1006.84
2023-08-19T02:46:27.631Z,1006.84
2023-08-19T02:47:27.616Z,1006.69
2023-08-19T02:48:27.605Z,1006.82
2023-08-19T02:49:27.550Z,1006.86
2023-08-19T02:50:27.543Z,1006.84
2023-08-19T02:51:27.515Z,1006.81
2023-08-19T02:52:27.496Z,1006.82
2023-08-19T02:53:27.503Z,1006.83
2023-08-19T02:54:27.472Z,1006.80
2023-08-19T02:55:27.472Z,1006.71
2023-08-19T02:56:27.455Z,1006.71
2023-08-19T02:57:27.463Z,1006.64
2023-08-19T02:58:27.427Z,1006.68
2023-08-19T02:59:27.428Z,1006.74
2023-08-19T03:00:27.406Z,1006.69
2023-08-19T03:01:27.393Z,1006.65
2023-08-19T03:02:27.425Z,1006.59
2023-08-19T03:03:27.490Z,1006.70
2023-08-19T03:04:27.378Z,1006.59
2023-08-19T03:05:27.352Z,1006.63
2023-08-19T03:06:27.373Z,1006.61
2023-08-19T03:07:27.347Z,1006.60
2023-08-19T03:08:27.318Z,1006.56
2023-08-19T03:09:27.369Z,1006.57
2023-08-19T03:10:27.290Z,1006.55
2023-08-19T03:11:27.291Z,1006.55
2023-08-19T03:12:27.274Z,1006.63
2023-08-19T03:13:27.267Z,1006.58
2023-08-19T03:14:27.249Z,1006.57
2023-08-19T03:15:27.258Z,1006.63
2023-08-19T03:16:27.281Z,1006.58
2023-08-19T03:17:27.234Z,1006.58
2023-08-19T03:18:27.208Z,1006.53
2023-08-19T03:19:27.198Z,1006.55
2023-08-19T03:20:27.201Z,1006.57
2023-08-19T03:21:27.177Z,1006.48
2023-08-19T03:22:27.177Z,1006.48
2023-08-19T03:23:27.157Z,1006.50
2023-08-19T03:24:27.160Z,1006.48
2023-08-19T03:25:27.123Z,1006.53
2023-08-19T03:26:27.174Z,1006.47
2023-08-19T03:27:27.105Z,1006.55
2023-08-19T03:28:27.107Z,1006.52
2023-08-19T03:29:27.081Z,1006.48
2023-08-19T03:30:27.080Z,1006.47
2023-08-19T03:31:27.088Z,1006.52
2023-08-19T03:32:27.060Z,1006.49
2023-08-19T03:33:27.095Z,1006.38
2023-08-19T03:34:27.078Z,1006.39
2023-08-19T03:35:27.060Z,1006.34
2023-08-19T03:36:27.037Z,1006.36
2023-08-19T03:37:26.993Z,1006.38
2023-08-19T03:38:27.006Z,1006.47
2023-08-19T03:39:26.987Z,1006.37
2023-08-19T03:40:26.966Z,1006.42
2023-08-19T03:41:26.961Z,1006.49
2023-08-19T03:42:26.960Z,1006.44
2023-08-19T03:43:26.932Z,1006.43
2023-08-19T03:44:26.914Z,1006.38
2023-08-19T03:45:26.902Z,1006.34
2023-08-19T03:46:26.930Z,1006.34
2023-08-19T03:47:26.910Z,1006.43
2023-08-19T03:48:26.870Z,1006.43
2023-08-19T03:49:26.861Z,1006.36
2023-08-19T03:50:26.877Z,1006.37
2023-08-19T03:51:26.846Z,1006.42
2023-08-19T03:52:26.849Z,1006.39
2023-08-19T03:53:26.869Z,1006.38
2023-08-19T03:54:26.825Z,1006.40
2023-08-19T03:55:26.809Z,1006.44
2023-08-19T03:56:26.797Z,1006.44
2023-08-19T03:57:26.776Z,1006.38
2023-08-19T03:58:26.770Z,1006.39
2023-08-19T03:59:26.752Z,1006.34
2023-08-19T04:00:26.735Z,1006.40
2023-08-19T04:01:26.808Z,1006.38
2023-08-19T04:02:26.808Z,1006.34
2023-08-19T04:03:26.718Z,1006.41
2023-08-19T04:04:26.730Z,1006.38
2023-08-19T04:05:26.680Z,1006.40
2023-08-19T04:06:26.667Z,1006.36
2023-08-19T04:07:26.651Z,1006.41
2023-08-19T04:08:26.669Z,1006.44
2023-08-19T04:09:26.631Z,1006.43
2023-08-19T04:10:26.661Z,1006.42
2023-08-19T04:11:26.633Z,1006.41
2023-08-19T04:12:26.634Z,1006.36
2023-08-19T04:13:26.594Z,1006.37
2023-08-19T04:14:26.605Z,1006.39
2023-08-19T04:15:26.573Z,1006.40
2023-08-19T04:16:26.599Z,1006.43
2023-08-19T04:17:26.579Z,1006.48
2023-08-19T04:18:26.590Z,1006.42
2023-08-19T04:19:26.531Z,1006.42
2023-08-19T04:20:26.519Z,1006.40
2023-08-19T04:21:28.051Z,1006.41
2023-08-19T04:22:26.491Z,1006.45
2023-08-19T04:23:26.571Z,1006.46
2023-08-19T04:24:26.467Z,1006.43
2023-08-19T04:25:26.461Z,1006.44
2023-08-19T04:26:26.567Z,1006.45
2023-08-19T04:27:26.433Z,1006.46
2023-08-19T04:28:26.443Z,1006.46
2023-08-19T04:29:26.413Z,1006.49
2023-08-19T04:30:26.424Z,1006.52
2023-08-19T04:31:26.392Z,1006.50
2023-08-19T04:32:26.405Z,1006.47
2023-08-19T04:33:26.416Z,1006.47
2023-08-19T04:34:26.381Z,1006.46
2023-08-19T04:35:26.340Z,1006.43
2023-08-19T04:36:26.336Z,1006.47
2023-08-19T04:37:26.338Z,1006.45
2023-08-19T04:38:26.322Z,1006.51
2023-08-19T04:39:26.306Z,1006.41
2023-08-19T04:40:26.318Z,1006.47
2023-08-19T04:41:26.272Z,1006.46
2023-08-19T04:42:26.289Z,1006.45
2023-08-19T04:43:26.250Z,1006.42
2023-08-19T04:44:26.250Z,1006.48
2023-08-19T04:45:26.241Z,1006.52
2023-08-19T04:46:26.217Z,1006.51
2023-08-19T04:47:26.283Z,1006.53
2023-08-19T04:48:26.220Z,1006.53
2023-08-19T04:49:26.185Z,1006.51
2023-08-19T04:50:26.188Z,1006.50
2023-08-19T04:51:26.170Z,1006.57
2023-08-19T04:52:26.150Z,1006.57
2023-08-19T04:53:26.140Z,1006.53
2023-08-19T04:54:26.156Z,1006.58
2023-08-19T04:55:26.125Z,1006.62
2023-08-19T04:56:26.135Z,1006.53
2023-08-19T04:57:26.093Z,1006.48
2023-08-19T04:58:26.116Z,1006.48
2023-08-19T04:59:26.089Z,1006.44
2023-08-19T05:00:26.066Z,1006.45
2023-08-19T05:01:26.119Z,1006.40
2023-08-19T05:02:26.040Z,1006.44
2023-08-19T05:03:26.025Z,1006.42
2023-08-19T05:04:26.064Z,1006.33
2023-08-19T05:05:26.019Z,1006.47
2023-08-19T05:06:26.020Z,1006.39
2023-08-19T05:07:25.982Z,1006.39
2023-08-19T05:08:25.998Z,1006.41
2023-08-19T05:09:25.961Z,1006.36
2023-08-19T05:10:25.961Z,1006.40
2023-08-19T05:11:25.963Z,1006.38
2023-08-19T05:12:25.930Z,1006.35
2023-08-19T05:13:25.950Z,1006.40
2023-08-19T05:14:25.929Z,1006.40
2023-08-19T05:15:25.904Z,1006.42
2023-08-19T05:16:25.953Z,1006.39
2023-08-19T05:17:25.904Z,1006.43
2023-08-19T05:18:25.861Z,1006.48
2023-08-19T05:19:25.886Z,1006.42
2023-08-19T05:20:25.839Z,1006.47
2023-08-19T05:21:25.830Z,1006.51
2023-08-19T05:22:25.824Z,1006.51
2023-08-19T05:23:25.814Z,1006.49
2023-08-19T05:24:25.800Z,1006.56
2023-08-19T05:25:25.784Z,1006.56
2023-08-19T05:26:25.808Z,1006.51
2023-08-19T05:27:25.764Z,1006.53
2023-08-19T05:28:25.768Z,1006.55
2023-08-19T05:29:25.738Z,1006.55
2023-08-19T05:30:25.845Z,1006.58
2023-08-19T05:31:25.750Z,1006.56
2023-08-19T05:32:25.716Z,1006.50
2023-08-19T05:33:25.715Z,1006.64
2023-08-19T05:34:25.678Z,1006.49
2023-08-19T05:35:25.686Z,1006.49
2023-08-19T05:36:25.659Z,1006.47
2023-08-19T05:37:25.650Z,1006.54
2023-08-19T05:38:25.663Z,1006.51
2023-08-19T05:39:25.625Z,1006.51
2023-08-19T05:40:25.617Z,1006.58
2023-08-19T05:41:25.608Z,1006.52
2023-08-19T05:42:25.601Z,1006.52
2023-08-19T05:43:25.614Z,1006.48
2023-08-19T05:44:25.584Z,1006.49
2023-08-19T05:45:25.615Z,1006.50
2023-08-19T05:46:25.573Z,1006.50
2023-08-19T05:47:25.585Z,1006.49
2023-08-19T05:48:25.529Z,1006.46
2023-08-19T05:49:25.548Z,1006.49
2023-08-19T05:50:25.514Z,1006.47
2023-08-19T05:51:25.486Z,1006.49
2023-08-19T05:52:25.487Z,1006.45
2023-08-19T05:53:25.474Z,1006.43
2023-08-19T05:54:25.476Z,1006.43
2023-08-19T05:55:25.460Z,1006.47
2023-08-19T05:56:25.433Z,1006.39
2023-08-19T05:57:25.450Z,1006.42
2023-08-19T05:58:25.411Z,1006.44
2023-08-19T05:59:25.415Z,1006.48
2023-08-19T06:00:25.414Z,1006.44
2023-08-19T06:01:25.406Z,1006.40
2023-08-19T06:02:25.385Z,1006.42
2023-08-19T06:03:25.429Z,1006.42
2023-08-19T06:04:25.364Z,1006.45
2023-08-19T06:05:25.353Z,1006.49
2023-08-19T06:06:25.338Z,1006.39
2023-08-19T06:07:25.312Z,1006.41
2023-08-19T06:08:25.303Z,1006.42
2023-08-19T06:09:25.292Z,1006.43
2023-08-19T06:10:25.299Z,1006.46
2023-08-19T06:11:25.279Z,1006.43
2023-08-19T06:12:25.276Z,1006.43
2023-08-19T06:13:25.248Z,1006.54
2023-08-19T06:14:25.233Z,1006.52
2023-08-19T06:15:25.253Z,1006.65
2023-08-19T06:16:25.223Z,1006.59
2023-08-19T06:17:25.242Z,1006.52
2023-08-19T06:18:25.341Z,1006.57
2023-08-19T06:19:25.185Z,1006.56
2023-08-19T06:20:25.183Z,1006.58
2023-08-19T06:21:25.170Z,1006.52
2023-08-19T06:22:25.153Z,1006.56
2023-08-19T06:23:25.133Z,1006.63
2023-08-19T06:24:25.118Z,1006.48
2023-08-19T06:25:25.109Z,1006.61
2023-08-19T06:26:25.123Z,1006.61
2023-08-19T06:27:25.083Z,1006.70
2023-08-19T06:28:25.110Z,1006.64
2023-08-19T06:29:25.080Z,1006.76
2023-08-19T06:30:25.056Z,1006.70
2023-08-19T06:31:25.077Z,1006.79
2023-08-19T06:32:25.056Z,1006.82
2023-08-19T06:33:25.015Z,1006.77
2023-08-19T06:34:25.041Z,1006.78
2023-08-19T06:35:25.012Z,1006.79
2023-08-19T06:36:24.995Z,1006.83
2023-08-19T06:37:25.177Z,1006.86
2023-08-19T06:38:24.974Z,1006.84
2023-08-19T06:39:24.949Z,1006.82
2023-08-19T06:40:24.936Z,1006.84
2023-08-19T06:41:24.931Z,1006.89
2023-08-19T06:42:24.914Z,1006.84
2023-08-19T06:43:24.927Z,1006.85
2023-08-19T06:44:24.896Z,1006.84
2023-08-19T06:45:24.884Z,1006.80
2023-08-19T06:46:24.904Z,1006.87
2023-08-19T06:47:25.276Z,1006.80
2023-08-19T06:48:24.851Z,1006.83
2023-08-19T06:49:24.861Z,1006.81
2023-08-19T06:50:24.866Z,1006.84
2023-08-19T06:51:24.814Z,1006.83
2023-08-19T06:52:24.820Z,1006.84
2023-08-19T06:53:24.819Z,1006.84
2023-08-19T06:54:24.793Z,1006.84
2023-08-19T06:55:24.793Z,1006.88
2023-08-19T06:56:24.759Z,1006.89
2023-08-19T06:57:24.753Z,1006.83
2023-08-19T06:58:24.747Z,1006.89
2023-08-19T06:59:24.754Z,1006.88
2023-08-19T07:00:24.729Z,1006.93
2023-08-19T07:01:24.701Z,1006.96
2023-08-19T07:02:24.710Z,1006.99
2023-08-19T07:03:24.744Z,1007.00
2023-08-19T07:04:24.685Z,1007.03
2023-08-19T07:05:24.668Z,1007.06
2023-08-19T07:06:24.672Z,1007.09
2023-08-19T07:07:24.632Z,1007.02
2023-08-19T07:08:24.628Z,1007.06
2023-08-19T07:09:24.656Z,1007.11
2023-08-19T07:10:24.605Z,1007.09
2023-08-19T07:11:24.605Z,1007.07
2023-08-19T07:12:24.584Z,1007.08
2023-08-19T07:13:24.586Z,1007.06
2023-08-19T07:14:24.556Z,1007.02
2023-08-19T07:15:24.563Z,1007.05
2023-08-19T07:16:24.587Z,1007.04
2023-08-19T07:17:24.531Z,1007.06
2023-08-19T07:18:24.508Z,1007.12
2023-08-19T07:19:24.528Z,1007.15
2023-08-19T07:20:24.489Z,1007.09
2023-08-19T07:21:24.488Z,1007.12
2023-08-19T07:22:24.483Z,1007.12
2023-08-19T07:23:24.470Z,1007.09
2023-08-19T07:24:24.447Z,1007.12
2023-08-19T07:25:24.433Z,1007.10
2023-08-19T07:26:24.415Z,1007.12
2023-08-19T07:27:24.435Z,1007.14
2023-08-19T07:28:24.402Z,1007.14
2023-08-19T07:29:24.385Z,1007.11
2023-08-19T07:30:24.372Z,1007.15
2023-08-19T07:31:24.363Z,1007.12
2023-08-19T07:32:24.412Z,1007.18
2023-08-19T07:33:24.343Z,1007.09
2023-08-19T07:34:24.333Z,1007.10
2023-08-19T07:35:24.326Z,1007.15
2023-08-19T07:36:24.301Z,1007.09
2023-08-19T07:37:24.294Z,1007.12
2023-08-19T07:38:24.338Z,1007.11
2023-08-19T07:39:24.274Z,1007.13
2023-08-19T07:40:24.265Z,1007.14
2023-08-19T07:41:24.252Z,1007.09
2023-08-19T07:42:24.237Z,1007.12
2023-08-19T07:43:24.237Z,1007.04
2023-08-19T07:44:24.252Z,1007.07
2023-08-19T07:45:24.247Z,1007.00
2023-08-19T07:46:24.458Z,1006.95
2023-08-19T07:47:24.232Z,1007.03
2023-08-19T07:48:24.196Z,1007.01
2023-08-19T07:49:24.173Z,1006.99
2023-08-19T07:50:24.149Z,1007.06
2023-08-19T07:51:24.152Z,1007.03
2023-08-19T07:52:24.125Z,1007.01
2023-08-19T07:53:24.121Z,1007.00
2023-08-19T07:54:24.137Z,1006.96
2023-08-19T07:55:24.102Z,1007.02
2023-08-19T07:56:24.085Z,1007.05
2023-08-19T07:57:24.067Z,1007.04
2023-08-19T07:58:24.064Z,1007.01
2023-08-19T07:59:24.096Z,1007.03
2023-08-19T08:00:24.050Z,1007.06
2023-08-19T08:01:24.068Z,1007.05
2023-08-19T08:02:26.182Z,1007.03
2023-08-19T08:03:24.031Z,1007.00
2023-08-19T08:04:24.001Z,1007.03
2023-08-19T08:05:24.108Z,1007.00
2023-08-19T08:06:23.975Z,1006.97
2023-08-19T08:07:23.973Z,1007.01
2023-08-19T08:08:23.956Z,1007.03
2023-08-19T08:09:24.019Z,1007.09
2023-08-19T08:10:23.955Z,1007.11
2023-08-19T08:11:23.916Z,1007.07
2023-08-19T08:12:23.907Z,1007.09
2023-08-19T08:13:23.903Z,1007.07
2023-08-19T08:14:23.891Z,1007.09
2023-08-19T08:15:23.910Z,1007.11
2023-08-19T08:16:23.899Z,1007.12
2023-08-19T08:17:23.865Z,1007.06
2023-08-19T08:18:23.865Z,1007.10
2023-08-19T08:19:23.837Z,1007.11
2023-08-19T08:20:23.819Z,1007.09
2023-08-19T08:21:23.819Z,1007.05
2023-08-19T08:22:23.791Z,1007.05
2023-08-19T08:23:23.779Z,1007.08
2023-08-19T08:24:23.782Z,1007.07
2023-08-19T08:25:23.783Z,1007.07
2023-08-19T08:26:23.777Z,1007.09
2023-08-19T08:27:23.735Z,1007.07
2023-08-19T08:28:23.731Z,1007.09
2023-08-19T08:29:23.719Z,1007.11
2023-08-19T08:30:23.717Z,1007.03
2023-08-19T08:31:23.723Z,1007.06
2023-08-19T08:32:23.737Z,1007.04
2023-08-19T08:33:23.684Z,1007.05
2023-08-19T08:34:23.679Z,1007.07
2023-08-19T08:35:23.647Z,1007.13
2023-08-19T08:36:23.633Z,1007.08
2023-08-19T08:37:23.628Z,1007.01
2023-08-19T08:38:23.642Z,1007.11
2023-08-19T08:39:23.632Z,1007.14
2023-08-19T08:40:23.598Z,1007.14
2023-08-19T08:41:23.579Z,1007.15
2023-08-19T08:42:23.596Z,1007.16
2023-08-19T08:43:23.578Z,1007.17
2023-08-19T08:44:23.544Z,1007.20
2023-08-19T08:45:23.557Z,1007.23
2023-08-19T08:46:23.536Z,1007.26
2023-08-19T08:47:23.508Z,1007.23
2023-08-19T08:48:23.500Z,1007.14
2023-08-19T08:49:23.506Z,1007.20
2023-08-19T08:50:23.490Z,1007.21
2023-08-19T08:51:23.475Z,1007.16
2023-08-19T08:52:23.462Z,1007.21
2023-08-19T08:53:23.443Z,1007.17
2023-08-19T08:54:23.435Z,1007.19
2023-08-19T08:55:23.450Z,1007.14
2023-08-19T08:56:23.404Z,1007.17
2023-08-19T08:57:23.403Z,1007.12
2023-08-19T08:58:23.413Z,1007.16
2023-08-19T08:59:23.374Z,1007.24
2023-08-19T09:00:23.380Z,1007.20
2023-08-19T09:01:23.384Z,1007.19
2023-08-19T09:02:23.355Z,1007.22
2023-08-19T09:03:23.335Z,1007.27
2023-08-19T09:04:23.352Z,1007.27
2023-08-19T09:05:23.327Z,1007.28
2023-08-19T09:06:25.052Z,1007.21
2023-08-19T09:07:23.312Z,1007.21
2023-08-19T09:08:23.271Z,1007.15
2023-08-19T09:09:23.264Z,1007.14
2023-08-19T09:10:23.262Z,1007.21
2023-08-19T09:11:23.252Z,1007.20
2023-08-19T09:12:23.240Z,1007.24
2023-08-19T09:13:23.216Z,1007.22
2023-08-19T09:14:23.235Z,1007.17
2023-08-19T09:15:23.194Z,1007.17
2023-08-19T09:16:23.195Z,1007.18
2023-08-19T09:17:23.185Z,1007.13
2023-08-19T09:18:23.166Z,1007.16
2023-08-19T09:19:23.190Z,1007.20
2023-08-19T09:20:23.152Z,1007.29
2023-08-19T09:21:23.134Z,1007.32
2023-08-19T09:22:23.153Z,1007.35
2023-08-19T09:23:23.106Z,1007.36
2023-08-19T09:24:23.116Z,1007.39
2023-08-19T09:25:23.114Z,1007.40
2023-08-19T09:26:23.072Z,1007.34
2023-08-19T09:27:23.060Z,1007.42
2023-08-19T09:28:23.076Z,1007.46
2023-08-19T09:29:23.041Z,1007.42
2023-08-19T09:30:23.050Z,1007.43
2023-08-19T09:31:23.069Z,1007.44
2023-08-19T09:32:23.023Z,1007.42
2023-08-19T09:33:23.004Z,1007.38
2023-08-19T09:34:23.000Z,1007.36
2023-08-19T09:35:22.980Z,1007.36
2023-08-19T09:36:22.959Z,1007.46
2023-08-19T09:37:22.972Z,1007.46
2023-08-19T09:38:22.943Z,1007.49
2023-08-19T09:39:22.940Z,1007.51
2023-08-19T09:40:22.931Z,1007.41
2023-08-19T09:41:22.924Z,1007.47
2023-08-19T09:42:22.906Z,1007.50
2023-08-19T09:43:22.886Z,1007.50
2023-08-19T09:44:22.908Z,1007.54
2023-08-19T09:45:22.859Z,1007.48
2023-08-19T09:46:22.885Z,1007.54
2023-08-19T09:47:22.866Z,1007.56
2023-08-19T09:48:22.829Z,1007.50
2023-08-19T09:49:22.829Z,1007.51
2023-08-19T09:50:22.814Z,1007.46
2023-08-19T09:51:22.833Z,1007.53
2023-08-19T09:52:22.807Z,1007.50
2023-08-19T09:53:22.779Z,1007.56
2023-08-19T09:54:22.766Z,1007.53
2023-08-19T09:55:22.819Z,1007.46
2023-08-19T09:56:22.738Z,1007.50
2023-08-19T09:57:22.726Z,1007.49
2023-08-19T09:58:22.751Z,1007.53
2023-08-19T09:59:22.724Z,1007.56
2023-08-19T10:00:22.693Z,1007.52
2023-08-19T10:01:22.706Z,1007.49
2023-08-19T10:02:22.709Z,1007.51
2023-08-19T10:03:22.871Z,1007.53
2023-08-19T10:04:22.916Z,1007.62
2023-08-19T10:05:22.740Z,1007.57
2023-08-19T10:06:22.639Z,1007.60
2023-08-19T10:07:22.614Z,1007.67
2023-08-19T10:08:22.603Z,1007.58
2023-08-19T10:09:22.609Z,1007.66
2023-08-19T10:10:22.617Z,1007.64
2023-08-19T10:11:22.585Z,1007.62
2023-08-19T10:12:22.560Z,1007.64
2023-08-19T10:13:22.572Z,1007.61
2023-08-19T10:14:22.553Z,1007.69
2023-08-19T10:15:22.555Z,1007.67
2023-08-19T10:16:22.521Z,1007.71
2023-08-19T10:17:22.505Z,1007.64
2023-08-19T10:18:22.530Z,1007.70
2023-08-19T10:19:22.493Z,1007.66
2023-08-19T10:20:22.468Z,1007.63
2023-08-19T10:21:22.471Z,1007.63
2023-08-19T10:22:22.448Z,1007.60
2023-08-19T10:23:22.494Z,1007.59
2023-08-19T10:24:22.441Z,1007.58
2023-08-19T10:25:22.419Z,1007.65
2023-08-19T10:26:22.422Z,1007.60
2023-08-19T10:27:22.397Z,1007.60
2023-08-19T10:28:22.405Z,1007.59
2023-08-19T10:29:22.376Z,1007.66
2023-08-19T10:30:22.377Z,1007.60
2023-08-19T10:31:22.467Z,1007.69
2023-08-19T10:32:22.344Z,1007.61
2023-08-19T10:33:22.328Z,1007.60
2023-08-19T10:34:22.338Z,1007.60
2023-08-19T10:35:22.325Z,1007.57
2023-08-19T10:36:22.290Z,1007.54
2023-08-19T10:37:22.293Z,1007.57
2023-08-19T10:38:22.336Z,1007.52
2023-08-19T10:39:22.263Z,1007.64
2023-08-19T10:40:22.252Z,1007.54
2023-08-19T10:41:22.246Z,1007.53
2023-08-19T10:42:22.248Z,1007.60
2023-08-19T10:43:22.216Z,1007.66
2023-08-19T10:44:22.201Z,1007.71
2023-08-19T10:45:22.219Z,1007.76
2023-08-19T10:46:22.290Z,1007.88
2023-08-19T10:47:22.192Z,1008.00
2023-08-19T10:48:22.167Z,1008.07
2023-08-19T10:49:22.147Z,1008.12
2023-08-19T10:50:22.166Z,1008.21
2023-08-19T10:51:22.143Z,1008.12
2023-08-19T10:52:22.122Z,1008.17
2023-08-19T10:53:22.124Z,1008.21
2023-08-19T10:54:22.094Z,1008.21
2023-08-19T10:55:22.086Z,1008.21
2023-08-19T10:56:22.070Z,1008.22
2023-08-19T10:57:22.067Z,1008.25
2023-08-19T10:58:22.069Z,1008.20
2023-08-19T10:59:22.040Z,1008.17
2023-08-19T11:00:22.028Z,1008.21
2023-08-19T11:01:22.030Z,1008.23
2023-08-19T11:02:22.024Z,1008.34
2023-08-19T11:03:22.010Z,1008.29
2023-08-19T11:04:22.032Z,1008.27
2023-08-19T11:05:21.975Z,1008.25
2023-08-19T11:06:21.980Z,1008.18
2023-08-19T11:07:21.965Z,1008.26
2023-08-19T11:08:21.941Z,1008.21
2023-08-19T11:09:21.938Z,1008.26
2023-08-19T11:10:21.928Z,1008.19
2023-08-19T11:11:21.904Z,1008.17
2023-08-19T11:12:21.943Z,1008.21
2023-08-19T11:13:21.891Z,1008.22
2023-08-19T11:14:21.884Z,1008.23
2023-08-19T11:15:21.876Z,1008.24
2023-08-19T11:16:21.877Z,1008.22
2023-08-19T11:17:21.863Z,1008.11
2023-08-19T11:18:21.844Z,1008.14
2023-08-19T11:19:21.833Z,1008.16
2023-08-19T11:20:21.818Z,1008.17
2023-08-19T11:21:21.822Z,1008.19
2023-08-19T11:22:21.804Z,1008.13
2023-08-19T11:23:21.774Z,1008.11
2023-08-19T11:24:21.762Z,1008.08
2023-08-19T11:25:21.753Z,1008.09
2023-08-19T11:26:21.757Z,1008.10
2023-08-19T11:27:21.744Z,1008.05
2023-08-19T11:28:21.716Z,1008.09
2023-08-19T11:29:21.713Z,1008.03
2023-08-19T11:30:21.714Z,1008.08
2023-08-19T11:31:21.710Z,1008.05
2023-08-19T11:32:21.853Z,1008.06
2023-08-19T11:33:24.103Z,1008.02
2023-08-19T11:34:21.670Z,1007.99
2023-08-19T11:35:21.639Z,1007.98
2023-08-19T11:36:21.632Z,1007.97
2023-08-19T11:37:21.637Z,1007.92
2023-08-19T11:38:21.629Z,1007.94
2023-08-19T11:39:21.591Z,1007.97
2023-08-19T11:40:29.697Z,1008.01
2023-08-19T11:41:22.568Z,1008.12
2023-08-19T11:42:21.571Z,1008.19
2023-08-19T11:43:21.562Z,1008.17
2023-08-19T11:44:21.557Z,1008.17
2023-08-19T11:45:21.530Z,1008.22
2023-08-19T11:46:21.578Z,1008.23
2023-08-19T11:47:21.581Z,1008.31
2023-08-19T11:48:21.493Z,1008.25
2023-08-19T11:49:21.500Z,1008.28
2023-08-19T11:50:21.468Z,1008.29
2023-08-19T11:51:22.910Z,1008.32
2023-08-19T11:52:21.488Z,1008.32
2023-08-19T11:53:21.465Z,1008.40
2023-08-19T11:54:21.470Z,1008.32
2023-08-19T11:55:21.425Z,1008.42
2023-08-19T11:56:24.177Z,1008.47
2023-08-19T11:57:21.394Z,1008.47
2023-08-19T11:58:21.399Z,1008.50
2023-08-19T11:59:21.371Z,1008.51
2023-08-19T12:00:21.389Z,1008.55
2023-08-19T12:01:21.404Z,1008.54
2023-08-19T12:02:22.473Z,1008.54
2023-08-19T12:03:21.410Z,1008.54
2023-08-19T12:04:21.326Z,1008.55
2023-08-19T12:05:21.304Z,1008.58
2023-08-19T12:06:21.309Z,1008.63
2023-08-19T12:07:21.284Z,1008.55
2023-08-19T12:08:23.155Z,1008.57
2023-08-19T12:09:21.284Z,1008.71